createdAt,value
2022-10-26T00:01:27.144Z,8.90
2022-10-26T00:06:14.918Z,8.90
2022-10-26T00:11:07.588Z,8.70
2022-10-26T00:35:17.113Z,8.80
2022-10-26T00:41:08.517Z,8.90
2022-10-26T00:57:09.551Z,8.50
2022-10-26T01:07:33.505Z,8.50
2022-10-26T01:18:28.347Z,8.70
2022-10-26T01:23:32.934Z,8.60
2022-10-26T01:28:37.982Z,8.70
2022-10-26T01:33:44.289Z,8.70
2022-10-26T01:38:43.573Z,8.70
2022-10-26T01:43:50.224Z,8.70
2022-10-26T01:48:41.500Z,8.60
2022-10-26T01:53:31.762Z,8.50
2022-10-26T01:58:50.634Z,8.50
2022-10-26T02:03:54.634Z,8.40
2022-10-26T02:09:16.441Z,8.30
2022-10-26T02:14:20.437Z,8.40
2022-10-26T02:19:40.783Z,8.20
2022-10-26T02:24:31.952Z,8.10
2022-10-26T02:29:21.492Z,8.10
2022-10-26T02:34:09.222Z,8.20
2022-10-26T02:38:56.755Z,8.20
2022-10-26T02:43:46.457Z,8.30
2022-10-26T02:48:30.353Z,8.30
2022-10-26T02:53:20.185Z,8.40
2022-10-26T02:58:34.545Z,8.50
2022-10-26T03:03:43.554Z,8.50
2022-10-26T03:13:19.525Z,8.40
2022-10-26T03:18:03.190Z,8.40
2022-10-26T03:23:12.568Z,8.40
2022-10-26T03:28:00.035Z,8.40
2022-10-26T03:32:45.040Z,8.30
2022-10-26T03:37:31.648Z,8.30
2022-10-26T03:42:22.023Z,8.40
2022-10-26T03:47:09.809Z,8.40
2022-10-26T03:51:57.913Z,8.50
2022-10-26T03:56:44.802Z,8.50
2022-10-26T04:01:31.907Z,8.50
2022-10-26T04:06:40.647Z,8.50
2022-10-26T04:11:25.638Z,8.50
2022-10-26T04:16:12.913Z,8.50
2022-10-26T04:21:02.421Z,8.50
2022-10-26T04:25:49.264Z,8.60
2022-10-26T04:30:37.991Z,8.50
2022-10-26T04:35:24.298Z,8.40
2022-10-26T04:40:33.445Z,8.40
2022-10-26T04:45:18.358Z,8.30
2022-10-26T04:50:07.208Z,8.30
2022-10-26T04:54:52.674Z,8.30
2022-10-26T04:59:39.303Z,8.30
2022-10-26T05:04:31.807Z,8.20
2022-10-26T05:09:16.965Z,8.10
2022-10-26T05:14:06.300Z,8.10
2022-10-26T05:18:57.925Z,8.00
2022-10-26T05:23:51.285Z,7.90
2022-10-26T05:28:36.296Z,7.80
2022-10-26T05:33:21.777Z,8.00
2022-10-26T05:38:09.830Z,7.90
2022-10-26T05:43:01.363Z,7.90
2022-10-26T05:47:47.156Z,7.90
2022-10-26T05:52:49.542Z,8.10
2022-10-26T05:57:40.149Z,8.10
2022-10-26T06:02:31.407Z,8.10
2022-10-26T06:07:35.500Z,8.10
2022-10-26T06:12:20.032Z,8.20
2022-10-26T06:17:35.095Z,8.10
2022-10-26T06:22:41.000Z,8.10
2022-10-26T06:27:45.759Z,8.20
2022-10-26T06:32:32.255Z,8.20
2022-10-26T06:37:26.174Z,8.30
2022-10-26T06:42:12.030Z,8.40
2022-10-26T06:47:19.827Z,8.50
2022-10-26T06:52:21.085Z,8.80
2022-10-26T06:57:05.394Z,9.00
2022-10-26T07:01:53.138Z,9.00
2022-10-26T07:06:45.974Z,9.10
2022-10-26T07:11:29.740Z,9.30
2022-10-26T07:16:16.518Z,9.50
2022-10-26T07:21:07.166Z,9.70
2022-10-26T07:25:53.912Z,9.90
2022-10-26T07:30:43.924Z,10.20
2022-10-26T07:35:31.159Z,10.50
2022-10-26T07:40:19.451Z,10.80
2022-10-26T07:45:06.454Z,11.00
2022-10-26T07:49:53.886Z,11.30
2022-10-26T07:54:40.417Z,11.60
2022-10-26T07:59:31.667Z,11.60
2022-10-26T08:04:18.392Z,11.60
2022-10-26T08:09:06.205Z,11.80
2022-10-26T08:13:53.878Z,12.20
2022-10-26T08:18:42.131Z,12.50
2022-10-26T08:23:28.871Z,12.90
2022-10-26T08:28:21.540Z,13.10
2022-10-26T08:33:06.801Z,13.30
2022-10-26T08:37:56.446Z,13.40
2022-10-26T08:42:44.417Z,13.80
2022-10-26T08:47:43.138Z,14.10
2022-10-26T08:52:37.784Z,14.30
2022-10-26T08:57:37.467Z,14.40
2022-10-26T09:02:25.379Z,14.80
2022-10-26T09:07:33.931Z,15.20
2022-10-26T09:12:23.797Z,15.30
2022-10-26T09:17:40.403Z,15.30
2022-10-26T09:22:43.855Z,15.30
2022-10-26T09:27:33.703Z,15.30
2022-10-26T09:32:20.440Z,15.70
2022-10-26T09:37:21.239Z,15.70
2022-10-26T09:42:26.744Z,15.80
2022-10-26T09:47:29.993Z,16.10
2022-10-26T09:52:22.533Z,16.80
2022-10-26T09:57:07.814Z,16.90
2022-10-26T10:01:52.369Z,16.70
2022-10-26T10:06:43.406Z,17.00
2022-10-26T10:11:46.141Z,17.20
2022-10-26T10:16:36.774Z,17.60
2022-10-26T10:21:20.350Z,17.60
2022-10-26T10:26:12.399Z,17.50
2022-10-26T10:31:02.402Z,17.70
2022-10-26T10:36:03.048Z,17.90
2022-10-26T10:40:55.195Z,17.90
2022-10-26T10:45:40.747Z,18.20
2022-10-26T10:50:26.974Z,18.10
2022-10-26T10:55:28.444Z,18.10
2022-10-26T11:00:20.458Z,18.00
2022-10-26T11:05:39.429Z,18.00
2022-10-26T11:10:29.189Z,18.10
2022-10-26T11:15:17.836Z,18.00
2022-10-26T11:20:04.498Z,18.20
2022-10-26T11:24:54.938Z,18.40
2022-10-26T11:29:52.933Z,18.40
2022-10-26T11:35:13.406Z,18.50
2022-10-26T11:40:47.326Z,18.60
2022-10-26T11:45:41.062Z,18.70
2022-10-26T11:50:30.405Z,18.70
2022-10-26T11:55:14.346Z,18.50
2022-10-26T12:00:05.328Z,18.60
2022-10-26T12:04:54.792Z,18.50
2022-10-26T12:09:43.144Z,18.50
2022-10-26T12:14:39.744Z,18.70
2022-10-26T12:19:48.920Z,18.60
2022-10-26T12:24:35.666Z,18.60
2022-10-26T12:29:40.271Z,18.30
2022-10-26T12:35:02.424Z,18.30
2022-10-26T12:39:46.795Z,18.20
2022-10-26T12:44:37.425Z,18.20
2022-10-26T12:49:59.766Z,18.20
2022-10-26T12:55:46.938Z,18.20
2022-10-26T13:01:10.749Z,18.10
2022-10-26T13:06:41.284Z,17.90
2022-10-26T13:11:32.581Z,17.80
2022-10-26T13:16:18.452Z,17.80
2022-10-26T13:21:11.687Z,17.90
2022-10-26T13:26:29.431Z,18.00
2022-10-26T13:32:02.244Z,18.30
2022-10-26T13:37:03.840Z,18.50
2022-10-26T13:41:58.851Z,18.50
2022-10-26T13:46:43.330Z,18.30
2022-10-26T13:52:15.758Z,18.10
2022-10-26T13:57:23.652Z,18.00
2022-10-26T14:02:43.069Z,17.80
2022-10-26T14:14:27.807Z,17.90
2022-10-26T14:20:20.207Z,17.80
2022-10-26T14:31:32.890Z,17.70
2022-10-26T14:43:03.066Z,17.40
2022-10-26T14:48:18.248Z,17.30
2022-10-26T14:53:23.757Z,17.30
2022-10-26T14:58:26.724Z,17.30
2022-10-26T15:10:09.344Z,17.10
2022-10-26T15:15:11.610Z,16.70
2022-10-26T15:26:13.801Z,15.90
2022-10-26T15:36:33.484Z,15.00
2022-10-26T15:41:26.772Z,14.70
2022-10-26T15:53:07.599Z,14.50
2022-10-26T15:57:54.197Z,14.30
2022-10-26T16:03:50.288Z,14.20
2022-10-26T16:09:27.002Z,14.00
2022-10-26T16:14:13.489Z,13.80
2022-10-26T16:19:33.429Z,13.70
2022-10-26T16:31:47.668Z,13.60
2022-10-26T16:37:08.091Z,13.50
2022-10-26T16:43:19.781Z,13.50
2022-10-26T16:48:37.298Z,13.50
2022-10-26T16:53:22.698Z,13.30
2022-10-26T16:58:09.847Z,13.40
2022-10-26T17:02:57.866Z,13.40
2022-10-26T17:07:47.780Z,13.40
2022-10-26T17:12:36.709Z,13.40
2022-10-26T17:23:30.407Z,13.40
2022-10-26T17:28:23.908Z,13.50
2022-10-26T17:34:25.527Z,13.40
2022-10-26T17:39:13.115Z,13.30
2022-10-26T17:44:02.357Z,13.30
2022-10-26T17:55:15.661Z,13.30
2022-10-26T18:00:04.341Z,13.30
2022-10-26T18:05:06.890Z,13.30
2022-10-26T18:09:54.758Z,13.30
2022-10-26T18:21:23.180Z,13.30
2022-10-26T18:26:13.151Z,13.40
2022-10-26T18:31:03.271Z,13.40
2022-10-26T18:35:47.556Z,13.30
2022-10-26T18:41:21.511Z,13.30
2022-10-26T18:46:27.517Z,13.20
2022-10-26T18:51:14.162Z,12.90
2022-10-26T18:56:06.135Z,12.80
2022-10-26T19:00:52.274Z,12.70
2022-10-26T19:05:39.491Z,12.60
2022-10-26T19:10:25.274Z,12.60
2022-10-26T19:15:14.500Z,12.70
2022-10-26T19:20:01.762Z,12.60
2022-10-26T19:24:54.061Z,12.70
2022-10-26T19:35:45.150Z,12.80
2022-10-26T20:04:36.677Z,13.20
2022-10-26T20:09:26.577Z,13.10
2022-10-26T20:19:28.586Z,13.20
2022-10-26T20:24:18.407Z,13.10
2022-10-26T20:29:51.304Z,13.10
2022-10-26T20:48:06.948Z,13.10
2022-10-26T20:53:17.325Z,12.90
2022-10-26T20:58:12.607Z,12.90
2022-10-26T21:03:33.676Z,13.00
2022-10-26T21:08:19.745Z,12.90
2022-10-26T21:19:19.464Z,12.80
2022-10-26T21:24:05.112Z,12.80
2022-10-26T21:34:40.093Z,12.80
2022-10-26T21:40:00.595Z,12.70
2022-10-26T21:45:22.896Z,12.70
2022-10-26T21:57:09.145Z,12.60
2022-10-26T22:01:58.372Z,12.50
2022-10-26T22:06:44.946Z,12.50
2022-10-26T22:17:37.242Z,12.30
2022-10-26T22:23:34.869Z,12.30
2022-10-26T22:28:22.681Z,12.40
2022-10-26T22:33:41.184Z,12.50
2022-10-26T22:38:26.583Z,12.60
2022-10-26T22:43:27.845Z,12.60
2022-10-26T22:48:20.928Z,12.70
2022-10-26T22:53:55.445Z,12.90
2022-10-26T22:58:47.102Z,12.60
2022-10-26T23:03:31.673Z,12.60
2022-10-26T23:08:32.740Z,12.50
2022-10-26T23:14:25.259Z,12.60
2022-10-26T23:25:55.545Z,12.50
